Terminal Aerodrome Forecast
Issued by NWS Cleveland, OH

Home | Current Version | Previous Version | Graphics & Text | Print | Product List | Glossary On
Versions: 1 2 3 4 5 6 7 8 9 10 11 12 13 14 15 16
000
FTUS41 KCLE 022341
TAFCLE
TAF
KCLE 022341Z 0300/0406 03008KT P6SM SKC
     FM031300 05005KT P6SM SCT250
     FM031500 03008KT P6SM BKN250
     FM040300 03003KT P6SM SCT250=

USA.gov is the U.S. government's official web portal to all federal, state and local government web resources and services.